createdAt,value
2018-11-13T00:00:00.973Z,99.99
2018-11-13T00:01:00.720Z,99.99
2018-11-13T00:02:00.977Z,99.99
2018-11-13T00:03:00.963Z,99.99
2018-11-13T00:04:00.956Z,99.99
2018-11-13T00:05:00.979Z,99.99
2018-11-13T00:06:00.706Z,99.99
2018-11-13T00:07:00.735Z,99.99
2018-11-13T00:08:00.950Z,99.99
2018-11-13T00:09:00.954Z,99.99
2018-11-13T00:10:00.707Z,99.99
2018-11-13T00:11:00.697Z,99.99
2018-11-13T00:12:00.945Z,99.99
2018-11-13T00:13:00.943Z,99.99
2018-11-13T00:14:00.933Z,99.99
2018-11-13T00:15:00.955Z,99.99
2018-11-13T00:16:00.949Z,99.99
2018-11-13T00:17:00.934Z,99.99
2018-11-13T00:18:00.949Z,99.99
2018-11-13T00:19:00.925Z,99.99
2018-11-13T00:20:00.917Z,99.99
2018-11-13T00:21:00.663Z,99.99
2018-11-13T00:22:00.915Z,99.99
2018-11-13T00:23:00.923Z,99.99
2018-11-13T00:24:01.136Z,99.99
2018-11-13T00:25:00.909Z,99.99
2018-11-13T00:26:00.669Z,99.99
2018-11-13T00:27:00.904Z,99.99
2018-11-13T00:28:00.900Z,99.99
2018-11-13T00:29:00.640Z,99.99
2018-11-13T00:30:00.907Z,99.99
2018-11-13T00:31:00.686Z,99.99
2018-11-13T00:32:00.905Z,99.99
2018-11-13T00:33:00.890Z,99.99
2018-11-13T00:34:00.890Z,99.99
2018-11-13T00:35:00.651Z,99.99
2018-11-13T00:36:00.887Z,99.99
2018-11-13T00:37:00.874Z,99.99
2018-11-13T00:38:00.878Z,99.99
2018-11-13T00:39:00.648Z,99.99
2018-11-13T00:40:00.865Z,99.99
2018-11-13T00:41:00.865Z,99.99
2018-11-13T00:42:00.863Z,99.99
2018-11-13T00:43:00.858Z,99.99
2018-11-13T00:44:00.866Z,99.99
2018-11-13T00:45:00.854Z,99.99
2018-11-13T00:46:01.052Z,99.99
2018-11-13T00:47:00.913Z,99.99
2018-11-13T00:48:00.851Z,99.99
2018-11-13T00:49:01.243Z,99.99
2018-11-13T00:50:00.577Z,99.99
2018-11-13T00:51:01.295Z,99.99
2018-11-13T00:52:00.581Z,99.99
2018-11-13T00:53:00.579Z,99.99
2018-11-13T00:54:00.575Z,99.99
2018-11-13T00:55:01.131Z,99.99
2018-11-13T00:56:00.839Z,99.99
2018-11-13T00:57:00.565Z,99.99
2018-11-13T00:58:00.560Z,99.99
2018-11-13T00:59:00.552Z,99.99
2018-11-13T01:00:00.810Z,99.99
2018-11-13T01:01:00.810Z,99.99
2018-11-13T01:02:00.652Z,99.99
2018-11-13T01:03:01.037Z,99.99
2018-11-13T01:04:00.538Z,99.99
2018-11-13T01:05:00.884Z,99.99
2018-11-13T01:06:00.811Z,99.99
2018-11-13T01:07:00.532Z,99.99
2018-11-13T01:08:00.526Z,99.99
2018-11-13T01:09:00.532Z,99.99
2018-11-13T01:10:00.795Z,99.99
2018-11-13T01:11:00.785Z,99.99
2018-11-13T01:12:01.333Z,99.99
2018-11-13T01:13:00.777Z,99.99
2018-11-13T01:14:00.519Z,99.99
2018-11-13T01:15:00.887Z,99.99
2018-11-13T01:16:00.775Z,99.99
2018-11-13T01:17:00.495Z,99.99
2018-11-13T01:18:00.792Z,99.99
2018-11-13T01:19:00.795Z,99.99
2018-11-13T01:20:00.491Z,99.99
2018-11-13T01:21:00.772Z,99.99
2018-11-13T01:22:00.758Z,99.99
2018-11-13T01:23:00.763Z,99.99
2018-11-13T01:24:01.121Z,99.99
2018-11-13T01:25:00.734Z,99.99
2018-11-13T01:26:00.745Z,99.99
2018-11-13T01:27:00.747Z,99.99
2018-11-13T01:28:00.749Z,99.99
2018-11-13T01:29:00.728Z,99.99
2018-11-13T01:30:00.734Z,99.99
2018-11-13T01:31:00.767Z,99.99
2018-11-13T01:32:00.734Z,99.99
2018-11-13T01:33:00.750Z,99.99
2018-11-13T01:34:00.454Z,99.99
2018-11-13T01:35:00.698Z,99.99
2018-11-13T01:36:00.452Z,99.99
2018-11-13T01:37:00.441Z,99.99
2018-11-13T01:38:00.437Z,99.99
2018-11-13T01:39:00.722Z,99.99
2018-11-13T01:40:00.437Z,99.99
2018-11-13T01:41:00.743Z,99.99
2018-11-13T01:42:00.425Z,99.99
2018-11-13T01:43:00.424Z,99.99
2018-11-13T01:44:00.673Z,99.99
2018-11-13T01:45:00.668Z,99.99
2018-11-13T01:46:00.445Z,99.99
2018-11-13T01:47:00.666Z,99.99
2018-11-13T01:48:00.688Z,99.99
2018-11-13T01:49:00.655Z,99.99
2018-11-13T01:50:00.420Z,99.99
2018-11-13T01:51:00.663Z,99.99
2018-11-13T01:52:00.418Z,99.99
2018-11-13T01:53:00.648Z,99.99
2018-11-13T01:54:00.702Z,99.99
2018-11-13T01:55:00.650Z,99.99
2018-11-13T01:56:00.640Z,99.99
2018-11-13T01:57:00.739Z,99.99
2018-11-13T01:58:00.378Z,99.99
2018-11-13T01:59:00.645Z,99.99
2018-11-13T02:00:00.375Z,99.99
2018-11-13T02:01:00.368Z,99.99
2018-11-13T02:02:00.367Z,99.99
2018-11-13T02:03:00.624Z,99.99
2018-11-13T02:04:00.640Z,99.99
2018-11-13T02:05:00.612Z,99.99
2018-11-13T02:06:00.360Z,99.99
2018-11-13T02:07:00.628Z,99.99
2018-11-13T02:08:00.613Z,99.99
2018-11-13T02:09:00.349Z,99.99
2018-11-13T02:10:00.617Z,99.99
2018-11-13T02:11:00.343Z,99.99
2018-11-13T02:12:00.629Z,99.99
2018-11-13T02:13:00.346Z,99.99
2018-11-13T02:14:00.584Z,99.99
2018-11-13T02:15:00.580Z,99.99
2018-11-13T02:16:00.584Z,99.99
2018-11-13T02:17:00.316Z,99.99
2018-11-13T02:18:00.315Z,99.99
2018-11-13T02:19:00.562Z,99.99
2018-11-13T02:20:00.573Z,99.99
2018-11-13T02:21:00.570Z,99.99
2018-11-13T02:22:00.565Z,99.99
2018-11-13T02:23:00.309Z,99.99
2018-11-13T02:24:00.555Z,99.99
2018-11-13T02:25:00.299Z,99.99
2018-11-13T02:26:00.558Z,99.99
2018-11-13T02:27:00.568Z,99.99
2018-11-13T02:28:00.549Z,99.99
2018-11-13T02:29:01.086Z,99.99
2018-11-13T02:30:00.561Z,99.99
2018-11-13T02:31:00.542Z,99.99
2018-11-13T02:32:00.538Z,99.99
2018-11-13T02:33:00.537Z,99.99
2018-11-13T02:34:00.530Z,99.99
2018-11-13T02:35:00.282Z,99.99
2018-11-13T02:36:00.539Z,99.99
2018-11-13T02:37:00.531Z,99.99
2018-11-13T02:38:00.295Z,99.99
2018-11-13T02:39:00.528Z,99.99
2018-11-13T02:40:00.517Z,99.99
2018-11-13T02:41:00.546Z,99.99
2018-11-13T02:42:00.505Z,99.99
2018-11-13T02:43:00.264Z,99.99
2018-11-13T02:44:00.247Z,99.99
2018-11-13T02:45:00.260Z,99.99
2018-11-13T02:46:00.514Z,99.99
2018-11-13T02:47:00.239Z,99.99
2018-11-13T02:48:00.491Z,99.99
2018-11-13T02:49:02.350Z,99.99
2018-11-13T02:50:00.487Z,99.99
2018-11-13T02:51:00.491Z,99.99
2018-11-13T02:52:00.484Z,99.99
2018-11-13T02:53:00.229Z,99.99
2018-11-13T02:54:00.482Z,99.99
2018-11-13T02:55:00.475Z,99.99
2018-11-13T02:56:00.221Z,99.99
2018-11-13T02:57:00.480Z,99.99
2018-11-13T02:58:00.234Z,99.99
2018-11-13T02:59:00.463Z,99.99
2018-11-13T03:00:00.468Z,99.99
2018-11-13T03:01:00.211Z,99.99
2018-11-13T03:02:00.210Z,99.99
2018-11-13T03:03:00.463Z,99.99
2018-11-13T03:04:00.456Z,99.99
2018-11-13T03:05:00.451Z,99.99
2018-11-13T03:06:00.454Z,99.99
2018-11-13T03:07:00.189Z,99.99
2018-11-13T03:08:00.456Z,99.99
2018-11-13T03:09:00.464Z,99.99
2018-11-13T03:10:00.438Z,99.99
2018-11-13T03:11:00.463Z,99.99
2018-11-13T03:12:00.175Z,99.99
2018-11-13T03:13:00.444Z,99.99
2018-11-13T03:14:00.567Z,99.99
2018-11-13T03:15:00.446Z,99.99
2018-11-13T03:16:00.433Z,99.99
2018-11-13T03:17:00.423Z,99.99
2018-11-13T03:18:00.414Z,99.99
2018-11-13T03:19:00.151Z,99.99
2018-11-13T03:20:00.163Z,99.99
2018-11-13T03:21:00.416Z,99.99
2018-11-13T03:22:00.420Z,99.99
2018-11-13T03:23:00.406Z,99.99
2018-11-13T03:24:00.147Z,99.99
2018-11-13T03:25:00.403Z,99.99
2018-11-13T03:26:00.408Z,99.99
2018-11-13T03:27:00.129Z,99.99
2018-11-13T03:28:00.415Z,99.99
2018-11-13T03:29:00.422Z,99.99
2018-11-13T03:30:00.387Z,99.99
2018-11-13T03:31:00.277Z,99.99
2018-11-13T03:32:00.420Z,99.99
2018-11-13T03:33:00.437Z,99.99
2018-11-13T03:34:00.397Z,99.99
2018-11-13T03:35:00.401Z,99.99
2018-11-13T03:36:00.127Z,99.99
2018-11-13T03:37:00.109Z,99.99
2018-11-13T03:38:00.107Z,99.99
2018-11-13T03:39:00.368Z,99.99
2018-11-13T03:40:00.360Z,99.99
2018-11-13T03:41:00.369Z,99.99
2018-11-13T03:42:00.353Z,99.99
2018-11-13T03:43:00.385Z,99.99
2018-11-13T03:44:00.353Z,99.99
2018-11-13T03:45:00.366Z,99.99
2018-11-13T03:46:00.347Z,99.99
2018-11-13T03:47:00.346Z,99.99
2018-11-13T03:48:00.099Z,99.99
2018-11-13T03:49:00.337Z,99.99
2018-11-13T03:50:00.082Z,99.99
2018-11-13T03:51:00.335Z,99.99
2018-11-13T03:52:00.082Z,99.99
2018-11-13T03:53:00.337Z,99.99
2018-11-13T03:54:00.325Z,99.99
2018-11-13T03:55:00.082Z,99.99
2018-11-13T03:56:00.070Z,99.99
2018-11-13T03:57:00.322Z,99.99
2018-11-13T03:58:00.341Z,99.99
2018-11-13T03:59:00.065Z,99.99
2018-11-13T04:00:00.065Z,99.99
2018-11-13T04:01:00.072Z,99.99
2018-11-13T04:02:00.317Z,99.99
2018-11-13T04:03:00.055Z,99.99
2018-11-13T04:04:00.050Z,99.99
2018-11-13T04:05:00.059Z,99.99
2018-11-13T04:06:00.314Z,99.99
2018-11-13T04:07:00.301Z,99.99
2018-11-13T04:08:00.050Z,99.99
2018-11-13T04:09:00.045Z,99.99
2018-11-13T04:10:00.035Z,99.99
2018-11-13T04:11:00.299Z,99.99
2018-11-13T04:12:00.289Z,99.99
2018-11-13T04:13:00.023Z,99.99
2018-11-13T04:14:00.022Z,99.99
2018-11-13T04:15:00.290Z,99.99
2018-11-13T04:16:00.034Z,99.99
2018-11-13T04:17:00.280Z,99.99
2018-11-13T04:18:00.269Z,99.99
2018-11-13T04:19:00.267Z,99.99
2018-11-13T04:20:00.271Z,99.99
2018-11-13T04:21:00.279Z,99.99
2018-11-13T04:22:00.277Z,99.99
2018-11-13T04:23:00.000Z,99.99
2018-11-13T04:24:00.002Z,99.99
2018-11-13T04:24:59.995Z,99.99
2018-11-13T04:25:59.992Z,99.99
2018-11-13T04:26:59.989Z,99.99
2018-11-13T04:28:00.247Z,99.99
2018-11-13T04:28:59.983Z,99.99
2018-11-13T04:29:59.986Z,99.99
2018-11-13T04:31:00.243Z,99.99
2018-11-13T04:32:00.244Z,99.99
2018-11-13T04:33:00.246Z,99.99
2018-11-13T04:33:59.986Z,99.99
2018-11-13T04:34:59.971Z,99.99
2018-11-13T04:36:59.986Z,99.99
2018-11-13T04:38:00.228Z,99.99
2018-11-13T04:39:00.224Z,99.99
2018-11-13T04:40:00.224Z,99.99
2018-11-13T04:40:59.962Z,99.99
2018-11-13T04:42:00.224Z,99.99
2018-11-13T04:43:00.225Z,99.99
2018-11-13T04:44:00.206Z,99.99
2018-11-13T04:44:59.959Z,99.99
2018-11-13T04:46:00.210Z,99.99
2018-11-13T04:47:00.194Z,99.99
2018-11-13T04:48:00.199Z,99.99
2018-11-13T04:49:00.184Z,99.99
2018-11-13T04:50:00.188Z,99.99
2018-11-13T04:51:00.199Z,99.99
2018-11-13T04:52:00.187Z,99.99
2018-11-13T04:53:00.188Z,99.99
2018-11-13T04:54:00.187Z,99.99
2018-11-13T04:54:59.960Z,99.99
2018-11-13T04:56:00.176Z,99.99
2018-11-13T04:57:00.175Z,99.99
2018-11-13T04:58:00.175Z,99.99
2018-11-13T04:59:00.168Z,99.99
2018-11-13T05:00:00.165Z,99.99
2018-11-13T05:01:00.167Z,99.99
2018-11-13T05:01:59.908Z,99.99
2018-11-13T05:02:59.955Z,99.99
2018-11-13T05:04:00.150Z,99.99
2018-11-13T05:05:00.216Z,99.99
2018-11-13T05:05:59.900Z,99.99
2018-11-13T05:07:00.152Z,99.99
2018-11-13T05:08:00.168Z,99.99
2018-11-13T05:09:00.151Z,99.99
2018-11-13T05:10:00.215Z,99.99
2018-11-13T05:11:00.146Z,99.99
2018-11-13T05:11:59.887Z,99.99
2018-11-13T05:12:59.885Z,99.99
2018-11-13T05:14:00.145Z,99.99
2018-11-13T05:15:00.145Z,99.99
2018-11-13T05:16:00.125Z,99.99
2018-11-13T05:16:59.871Z,99.99
2018-11-13T05:18:00.115Z,99.99
2018-11-13T05:19:00.119Z,99.99
2018-11-13T05:20:00.113Z,99.99
2018-11-13T05:21:00.124Z,99.99
2018-11-13T05:21:59.852Z,99.99
2018-11-13T05:23:00.216Z,99.99
2018-11-13T05:23:59.845Z,99.99
2018-11-13T05:25:00.096Z,99.99
2018-11-13T05:26:00.114Z,99.99
2018-11-13T05:26:59.838Z,99.99
2018-11-13T05:28:00.093Z,99.99
2018-11-13T05:29:00.096Z,99.99
2018-11-13T05:30:00.093Z,99.99
2018-11-13T05:30:59.839Z,99.99
2018-11-13T05:31:59.843Z,99.99
2018-11-13T05:33:00.076Z,99.99
2018-11-13T05:33:59.847Z,99.99
2018-11-13T05:35:00.077Z,99.99
2018-11-13T05:36:00.088Z,99.99
2018-11-13T05:37:00.072Z,99.99
2018-11-13T05:38:00.065Z,99.99
2018-11-13T05:38:59.815Z,99.99
2018-11-13T05:40:00.077Z,99.99
2018-11-13T05:40:59.799Z,99.99
2018-11-13T05:42:00.055Z,99.99
2018-11-13T05:43:00.050Z,99.99
2018-11-13T05:44:00.056Z,99.99
2018-11-13T05:45:00.044Z,99.99
2018-11-13T05:46:00.044Z,99.99
2018-11-13T05:47:00.147Z,99.99
2018-11-13T05:48:00.034Z,99.99
2018-11-13T05:49:00.070Z,99.99
2018-11-13T05:49:59.785Z,99.99
2018-11-13T05:50:59.790Z,99.99
2018-11-13T05:51:59.776Z,99.99
2018-11-13T05:53:00.025Z,99.99
2018-11-13T05:54:00.076Z,99.99
2018-11-13T05:55:00.022Z,99.99
2018-11-13T05:56:00.033Z,99.99
2018-11-13T05:57:00.015Z,99.99
2018-11-13T05:58:00.013Z,99.99
2018-11-13T05:58:59.751Z,99.99
2018-11-13T05:59:59.880Z,99.99
2018-11-13T06:01:00.022Z,99.99
2018-11-13T06:01:59.750Z,99.99
2018-11-13T06:02:59.995Z,99.99
2018-11-13T06:03:59.986Z,99.99
2018-11-13T06:04:59.979Z,99.99
2018-11-13T06:05:59.729Z,99.99
2018-11-13T06:06:59.735Z,99.99
2018-11-13T06:07:59.735Z,99.99
2018-11-13T06:08:59.735Z,99.99
2018-11-13T06:09:59.986Z,99.99
2018-11-13T06:10:59.969Z,99.99
2018-11-13T06:11:59.735Z,99.99
2018-11-13T06:12:59.974Z,99.99
2018-11-13T06:14:00.056Z,99.99
2018-11-13T06:14:59.965Z,99.99
2018-11-13T06:15:59.957Z,99.99
2018-11-13T06:16:59.695Z,99.99
2018-11-13T06:17:59.994Z,99.99
2018-11-13T06:18:59.946Z,99.99
2018-11-13T06:19:59.942Z,99.99
2018-11-13T06:20:59.687Z,99.99
2018-11-13T06:21:59.737Z,99.99
2018-11-13T06:23:00.032Z,99.99
2018-11-13T06:23:59.937Z,99.99
2018-11-13T06:24:59.682Z,99.99
2018-11-13T06:25:59.947Z,99.99
2018-11-13T06:26:59.928Z,99.99
2018-11-13T06:27:59.923Z,99.99
2018-11-13T06:28:59.935Z,99.99
2018-11-13T06:30:00.455Z,99.99
2018-11-13T06:30:59.656Z,99.99
2018-11-13T06:31:59.910Z,99.99
2018-11-13T06:32:59.646Z,99.99
2018-11-13T06:33:59.643Z,99.99
2018-11-13T06:34:59.637Z,99.99
2018-11-13T06:35:59.899Z,99.99
2018-11-13T06:36:59.892Z,99.99
2018-11-13T06:37:59.629Z,99.99
2018-11-13T06:38:59.965Z,99.99
2018-11-13T06:39:59.881Z,99.99
2018-11-13T06:40:59.619Z,99.99
2018-11-13T06:41:59.872Z,99.99
2018-11-13T06:42:59.876Z,99.99
2018-11-13T06:43:59.867Z,99.99
2018-11-13T06:44:59.874Z,99.99
2018-11-13T06:45:59.600Z,99.99
2018-11-13T06:46:59.598Z,99.99
2018-11-13T06:47:59.589Z,99.99
2018-11-13T06:48:59.982Z,99.99
2018-11-13T06:50:03.265Z,99.99
2018-11-13T06:50:59.834Z,99.99
2018-11-13T06:51:59.835Z,99.99
2018-11-13T06:52:59.835Z,99.99
2018-11-13T06:53:59.829Z,99.99
2018-11-13T06:54:59.574Z,99.99
2018-11-13T06:55:59.831Z,99.99
2018-11-13T06:56:59.819Z,99.99
2018-11-13T06:57:59.822Z,99.99
2018-11-13T06:58:59.562Z,99.99
2018-11-13T06:59:59.820Z,99.99
2018-11-13T07:00:59.834Z,99.99
2018-11-13T07:01:59.821Z,99.99
2018-11-13T07:02:59.821Z,99.99
2018-11-13T07:03:59.822Z,99.99
2018-11-13T07:04:59.907Z,99.99
2018-11-13T07:05:59.540Z,99.99
2018-11-13T07:06:59.563Z,99.99
2018-11-13T07:07:59.543Z,99.99
2018-11-13T07:08:59.792Z,99.99
2018-11-13T07:09:59.797Z,99.99
2018-11-13T07:10:59.985Z,99.99
2018-11-13T07:11:59.776Z,99.99
2018-11-13T07:12:59.531Z,99.99
2018-11-13T07:13:59.517Z,99.99
2018-11-13T07:14:59.775Z,99.99
2018-11-13T07:15:59.522Z,99.99
2018-11-13T07:16:59.515Z,99.99
2018-11-13T07:17:59.523Z,99.99
2018-11-13T07:18:59.518Z,99.99
2018-11-13T07:19:59.753Z,99.99
2018-11-13T07:21:00.449Z,99.99
2018-11-13T07:21:59.494Z,99.99
2018-11-13T07:22:59.490Z,99.99
2018-11-13T07:23:59.756Z,99.99
2018-11-13T07:24:59.753Z,99.99
2018-11-13T07:25:59.753Z,99.99
2018-11-13T07:26:59.824Z,99.99
2018-11-13T07:27:59.516Z,99.99
2018-11-13T07:28:59.477Z,99.99
2018-11-13T07:29:59.469Z,99.99
2018-11-13T07:30:59.731Z,99.99
2018-11-13T07:31:59.472Z,99.99
2018-11-13T07:32:59.477Z,99.99
2018-11-13T07:33:59.711Z,99.99
2018-11-13T07:34:59.712Z,99.99
2018-11-13T07:35:59.709Z,99.99
2018-11-13T07:36:59.722Z,99.99
2018-11-13T07:37:59.710Z,99.99
2018-11-13T07:38:59.446Z,99.99
2018-11-13T07:39:59.693Z,99.99
2018-11-13T07:40:59.861Z,99.99
2018-11-13T07:41:59.691Z,99.99
2018-11-13T07:42:59.678Z,99.99
2018-11-13T07:43:59.688Z,99.99
2018-11-13T07:44:59.683Z,99.99
2018-11-13T07:45:59.673Z,99.99
2018-11-13T07:46:59.876Z,99.99
2018-11-13T07:48:00.023Z,99.99
2018-11-13T07:48:59.665Z,99.99
2018-11-13T07:49:59.671Z,99.99
2018-11-13T07:50:59.763Z,99.99
2018-11-13T07:51:59.666Z,99.99
2018-11-13T07:52:59.649Z,99.99
2018-11-13T07:53:59.513Z,99.99
2018-11-13T07:54:59.395Z,99.99
2018-11-13T07:55:59.642Z,99.99
2018-11-13T07:56:59.394Z,99.99
2018-11-13T07:57:59.642Z,99.99
2018-11-13T07:58:59.640Z,99.99
2018-11-13T07:59:59.378Z,99.99
2018-11-13T08:00:59.623Z,99.99
2018-11-13T08:01:59.370Z,99.99
2018-11-13T08:02:59.626Z,99.99
2018-11-13T08:03:59.614Z,99.99
2018-11-13T08:04:59.356Z,99.99
2018-11-13T08:05:59.615Z,99.99
2018-11-13T08:06:59.607Z,99.99
2018-11-13T08:07:59.346Z,99.99
2018-11-13T08:08:59.596Z,99.99
2018-11-13T08:09:59.600Z,99.99
2018-11-13T08:10:59.607Z,99.99
2018-11-13T08:11:59.592Z,99.99
2018-11-13T08:12:59.925Z,99.99
2018-11-13T08:13:59.329Z,99.99
2018-11-13T08:14:59.584Z,99.99
2018-11-13T08:15:59.585Z,99.99
2018-11-13T08:16:59.580Z,99.99
2018-11-13T08:17:59.588Z,99.99
2018-11-13T08:18:59.687Z,99.99
2018-11-13T08:19:59.570Z,99.99
2018-11-13T08:20:59.626Z,99.99
2018-11-13T08:21:59.323Z,99.99
2018-11-13T08:22:59.332Z,99.99
2018-11-13T08:23:59.303Z,99.99
2018-11-13T08:24:59.559Z,99.99
2018-11-13T08:25:59.303Z,99.99
2018-11-13T08:26:59.769Z,99.99
2018-11-13T08:27:59.328Z,99.99
2018-11-13T08:28:59.372Z,99.99
2018-11-13T08:29:59.543Z,99.99
2018-11-13T08:30:59.534Z,99.99
2018-11-13T08:31:59.538Z,99.99
2018-11-13T08:32:59.278Z,99.99
2018-11-13T08:33:59.264Z,99.99
2018-11-13T08:34:59.403Z,99.99
2018-11-13T08:35:59.523Z,99.99
2018-11-13T08:36:59.534Z,99.99
2018-11-13T08:37:59.260Z,99.99
2018-11-13T08:38:59.254Z,99.99
2018-11-13T08:39:59.251Z,99.99
2018-11-13T08:40:59.507Z,99.99
2018-11-13T08:41:59.513Z,99.99
2018-11-13T08:42:59.500Z,99.99
2018-11-13T08:43:59.634Z,99.99
2018-11-13T08:44:59.493Z,99.99
2018-11-13T08:45:59.501Z,99.99
2018-11-13T08:46:59.237Z,99.99
2018-11-13T08:47:59.227Z,99.99
2018-11-13T08:48:59.479Z,99.99
2018-11-13T08:49:59.234Z,99.99
2018-11-13T08:50:59.235Z,99.99
2018-11-13T08:51:59.214Z,99.99
2018-11-13T08:52:59.479Z,99.99
2018-11-13T08:53:59.474Z,99.99
2018-11-13T08:54:59.467Z,99.99
2018-11-13T08:55:59.460Z,99.99
2018-11-13T08:56:59.468Z,99.99
2018-11-13T08:57:59.452Z,99.99
2018-11-13T08:58:59.686Z,99.99
2018-11-13T08:59:59.452Z,99.99
2018-11-13T09:00:59.444Z,99.99
2018-11-13T09:01:59.445Z,99.99
2018-11-13T09:02:59.454Z,99.99
2018-11-13T09:03:59.185Z,99.99
2018-11-13T09:04:59.574Z,99.99
2018-11-13T09:05:59.425Z,99.99
2018-11-13T09:06:59.164Z,99.99
2018-11-13T09:07:59.164Z,99.99
2018-11-13T09:08:59.167Z,99.99
2018-11-13T09:09:59.416Z,99.99
2018-11-13T09:10:59.411Z,99.99
2018-11-13T09:11:59.930Z,99.99
2018-11-13T09:12:59.152Z,99.99
2018-11-13T09:13:59.409Z,99.99
2018-11-13T09:14:59.150Z,99.99
2018-11-13T09:15:59.409Z,99.99
2018-11-13T09:16:59.400Z,99.99
2018-11-13T09:17:59.190Z,99.99
2018-11-13T09:18:59.652Z,99.99
2018-11-13T09:19:59.125Z,99.99
2018-11-13T09:20:59.385Z,99.99
2018-11-13T09:21:59.382Z,99.99
2018-11-13T09:22:59.377Z,99.99
2018-11-13T09:23:59.116Z,99.99
2018-11-13T09:24:59.370Z,99.99
2018-11-13T09:25:59.111Z,99.99
2018-11-13T09:26:59.371Z,99.99
2018-11-13T09:27:59.396Z,99.99
2018-11-13T09:28:59.360Z,99.99
2018-11-13T09:29:59.590Z,99.99
2018-11-13T09:31:00.114Z,99.99
2018-11-13T09:31:59.171Z,99.99
2018-11-13T09:32:59.101Z,99.99
2018-11-13T09:33:59.340Z,99.99
2018-11-13T09:34:59.345Z,99.99
2018-11-13T09:35:59.102Z,99.99
2018-11-13T09:36:59.352Z,99.99
2018-11-13T09:37:59.329Z,99.99
2018-11-13T09:38:59.071Z,99.99
2018-11-13T09:39:59.326Z,99.99
2018-11-13T09:40:59.331Z,99.99
2018-11-13T09:41:59.320Z,99.99
2018-11-13T09:42:59.077Z,99.99
2018-11-13T09:43:59.314Z,99.99
2018-11-13T09:44:59.618Z,99.99
2018-11-13T09:45:59.147Z,99.99
2018-11-13T09:46:59.316Z,99.99
2018-11-13T09:47:59.302Z,99.99
2018-11-13T09:48:59.042Z,99.99
2018-11-13T09:49:59.302Z,99.99
2018-11-13T09:50:59.311Z,99.99
2018-11-13T09:51:59.593Z,99.99
2018-11-13T09:52:59.284Z,99.99
2018-11-13T09:53:59.302Z,99.99
2018-11-13T09:54:59.285Z,99.99
2018-11-13T09:55:59.284Z,99.99
2018-11-13T09:56:59.024Z,99.99
2018-11-13T09:57:59.025Z,99.99
2018-11-13T09:58:59.398Z,99.99
2018-11-13T09:59:59.393Z,99.99
2018-11-13T10:00:59.218Z,99.99
2018-11-13T10:02:00.469Z,99.99
2018-11-13T10:03:01.178Z,99.99
2018-11-13T10:04:01.089Z,99.99
2018-11-13T10:04:59.637Z,99.99
2018-11-13T10:05:59.060Z,99.99
2018-11-13T10:06:59.481Z,99.99
2018-11-13T10:07:58.988Z,99.99
2018-11-13T10:08:59.242Z,99.99
2018-11-13T10:09:58.989Z,99.99
2018-11-13T10:10:59.254Z,99.99
2018-11-13T10:11:58.974Z,99.99
2018-11-13T10:12:58.974Z,99.99
2018-11-13T10:13:59.223Z,99.99
2018-11-13T10:14:59.227Z,99.99
2018-11-13T10:15:59.237Z,99.99
2018-11-13T10:16:59.014Z,99.99
2018-11-13T10:17:59.720Z,99.99
2018-11-13T10:18:59.210Z,99.99
2018-11-13T10:19:58.973Z,99.99
2018-11-13T10:20:59.212Z,99.99
2018-11-13T10:22:00.798Z,99.99
2018-11-13T10:22:59.207Z,99.99
2018-11-13T10:23:58.944Z,99.99
2018-11-13T10:24:59.200Z,99.99
2018-11-13T10:25:58.944Z,99.99
2018-11-13T10:26:59.257Z,99.99
2018-11-13T10:27:59.193Z,99.99
2018-11-13T10:28:59.198Z,99.99
2018-11-13T10:29:59.272Z,99.99
2018-11-13T10:30:59.189Z,99.99
2018-11-13T10:31:59.190Z,99.99
2018-11-13T10:32:58.944Z,99.99
2018-11-13T10:33:59.183Z,99.99
2018-11-13T10:34:59.178Z,99.99
2018-11-13T10:35:59.177Z,99.99
2018-11-13T10:36:59.249Z,99.99
2018-11-13T10:37:59.166Z,99.99
2018-11-13T10:38:58.903Z,99.99
2018-11-13T10:39:59.263Z,99.99
2018-11-13T10:40:59.385Z,99.99
2018-11-13T10:41:58.904Z,99.99
2018-11-13T10:42:58.910Z,99.99
2018-11-13T10:43:59.157Z,99.99
2018-11-13T10:44:59.156Z,99.99
2018-11-13T10:45:59.165Z,99.99
2018-11-13T10:46:59.143Z,99.99
2018-11-13T10:47:59.153Z,99.99
2018-11-13T10:48:59.296Z,99.99
2018-11-13T10:49:58.892Z,99.99
2018-11-13T10:50:59.157Z,99.99
2018-11-13T10:51:59.177Z,99.99
2018-11-13T10:52:59.132Z,99.99
2018-11-13T10:53:58.873Z,99.99
2018-11-13T10:54:59.151Z,99.99
2018-11-13T10:55:58.860Z,99.99
2018-11-13T10:56:59.123Z,99.99
2018-11-13T10:57:58.874Z,99.99
2018-11-13T10:58:59.121Z,99.99
2018-11-13T10:59:59.112Z,99.99
2018-11-13T11:00:59.114Z,99.99
2018-11-13T11:01:59.104Z,99.99
2018-11-13T11:02:59.407Z,99.99
2018-11-13T11:03:58.839Z,99.99
2018-11-13T11:04:59.097Z,99.99
2018-11-13T11:05:59.098Z,99.99
2018-11-13T11:06:59.103Z,99.99
2018-11-13T11:07:59.087Z,99.99
2018-11-13T11:08:59.101Z,99.99
2018-11-13T11:09:59.082Z,99.99
2018-11-13T11:10:59.083Z,99.99
2018-11-13T11:11:58.832Z,99.99
2018-11-13T11:12:59.358Z,99.99
2018-11-13T11:13:59.844Z,99.99
2018-11-13T11:14:59.083Z,99.99
2018-11-13T11:15:59.078Z,99.76
2018-11-13T11:16:58.828Z,99.76
2018-11-13T11:17:58.849Z,98.8
2018-11-13T11:18:58.922Z,98.99
2018-11-13T11:19:59.083Z,99.76
2018-11-13T11:20:59.055Z,99.99
2018-11-13T11:21:59.370Z,99.99
2018-11-13T11:22:59.262Z,99.99
2018-11-13T11:23:59.211Z,99.99
2018-11-13T11:24:58.841Z,99.99
2018-11-13T11:25:58.794Z,99.99
2018-11-13T11:26:58.803Z,99.85
2018-11-13T11:27:59.225Z,99.99
2018-11-13T11:28:59.048Z,99.99
2018-11-13T11:29:59.038Z,99.99
2018-11-13T11:30:58.813Z,99.99
2018-11-13T11:31:58.782Z,99.99
2018-11-13T11:32:59.050Z,99.99
2018-11-13T11:33:59.030Z,99.99
2018-11-13T11:34:58.778Z,99.99
2018-11-13T11:35:59.047Z,99.48
2018-11-13T11:36:59.029Z,98.8
2018-11-13T11:37:58.779Z,98.33
2018-11-13T11:38:59.482Z,98.9
2018-11-13T11:39:59.048Z,98.13
2018-11-13T11:40:59.032Z,97.66
2018-11-13T11:41:58.781Z,96.7
2018-11-13T11:42:59.025Z,95.84
2018-11-13T11:43:59.009Z,95.27
2018-11-13T11:44:59.023Z,95.27
2018-11-13T11:45:59.008Z,95.56
2018-11-13T11:46:59.007Z,95.94
2018-11-13T11:47:59.006Z,95.46
2018-11-13T11:48:58.745Z,96.32
2018-11-13T11:49:59.012Z,96.8
2018-11-13T11:50:59.009Z,96.32
2018-11-13T11:51:59.257Z,96.89
2018-11-13T11:52:59.006Z,96.42
2018-11-13T11:53:59.281Z,95.36
2018-11-13T11:54:58.751Z,95.84
2018-11-13T11:55:58.732Z,95.84
2018-11-13T11:56:58.765Z,95.36
2018-11-13T11:57:58.728Z,94.79
2018-11-13T11:58:58.722Z,96.32
2018-11-13T11:59:58.973Z,97.66
2018-11-13T12:00:58.725Z,96.8
2018-11-13T12:01:59.017Z,95.84
2018-11-13T12:02:58.966Z,95.75
2018-11-13T12:03:58.970Z,96.61
2018-11-13T12:04:58.975Z,97.56
2018-11-13T12:05:58.724Z,96.7
2018-11-13T12:06:58.725Z,96.22
2018-11-13T12:07:58.708Z,95.75
2018-11-13T12:08:58.959Z,96.32
2018-11-13T12:09:58.700Z,97.28
2018-11-13T12:10:58.973Z,95.75
2018-11-13T12:11:58.954Z,94.89
2018-11-13T12:12:58.690Z,96.32
2018-11-13T12:13:58.705Z,96.51
2018-11-13T12:14:58.951Z,96.7
2018-11-13T12:15:58.685Z,95.75
2018-11-13T12:16:58.685Z,94.98
2018-11-13T12:17:58.941Z,95.36
2018-11-13T12:18:59.087Z,94.98
2018-11-13T12:19:58.939Z,95.36
2018-11-13T12:20:58.959Z,95.56
2018-11-13T12:21:59.473Z,95.84
2018-11-13T12:22:58.681Z,95.84
2018-11-13T12:23:58.931Z,94.98
2018-11-13T12:24:58.672Z,94.31
2018-11-13T12:25:59.131Z,95.27
2018-11-13T12:26:58.923Z,94.31
2018-11-13T12:27:58.923Z,93.6
2018-11-13T12:28:58.935Z,93.79
2018-11-13T12:29:58.922Z,93.69
2018-11-13T12:30:58.921Z,93.98
2018-11-13T12:31:58.924Z,93.4
2018-11-13T12:32:58.924Z,93.5
2018-11-13T12:33:58.674Z,93.12
2018-11-13T12:34:58.912Z,93.5
2018-11-13T12:35:58.663Z,91.02
2018-11-13T12:36:58.927Z,91.02
2018-11-13T12:37:58.894Z,91.78
2018-11-13T12:38:58.902Z,91.59
2018-11-13T12:39:58.660Z,92.54
2018-11-13T12:40:59.243Z,91.39
2018-11-13T12:41:58.893Z,91.78
2018-11-13T12:42:58.634Z,91.68
2018-11-13T12:43:58.893Z,91.59
2018-11-13T12:44:58.889Z,91.2
2018-11-13T12:45:58.628Z,91.2
2018-11-13T12:46:59.026Z,91.25
2018-11-13T12:47:58.623Z,91.68
2018-11-13T12:48:59.207Z,91.49
2018-11-13T12:49:58.880Z,92.07
2018-11-13T12:50:58.626Z,92.64
2018-11-13T12:51:58.872Z,92.25
2018-11-13T12:52:58.876Z,92.25
2018-11-13T12:54:00.835Z,91.39